createdAt,value
2017-07-16T00:01:11.171Z,97798.23
2017-07-16T00:03:38.763Z,97797.78
2017-07-16T00:06:06.361Z,97799.93
2017-07-16T00:08:33.979Z,97800.74
2017-07-16T00:11:01.614Z,97798.64
2017-07-16T00:13:29.214Z,97797.77
2017-07-16T00:15:56.837Z,97795.63
2017-07-16T00:18:24.436Z,97792.22
2017-07-16T00:20:52.046Z,97792.66
2017-07-16T00:23:20.097Z,97792.22
2017-07-16T00:25:47.697Z,97794.34
2017-07-16T00:28:15.272Z,97799.44
2017-07-16T00:30:42.896Z,97802.44
2017-07-16T00:33:10.497Z,97801.56
2017-07-16T00:35:38.201Z,97797.70
2017-07-16T00:38:05.776Z,97799.84
2017-07-16T00:40:33.661Z,97800.27
2017-07-16T00:43:01.245Z,97802.38
2017-07-16T00:45:28.804Z,97805.77
2017-07-16T00:47:56.400Z,97797.27
2017-07-16T00:50:23.991Z,97802.78
2017-07-16T00:52:51.600Z,97801.52
2017-07-16T00:55:19.195Z,97803.19
2017-07-16T00:57:46.802Z,97805.77
2017-07-16T01:00:14.397Z,97801.07
2017-07-16T01:02:42.354Z,97795.11
2017-07-16T01:05:09.972Z,97787.41
2017-07-16T01:07:37.568Z,97791.66
2017-07-16T01:10:05.184Z,97786.98
2017-07-16T01:12:32.770Z,97785.27
2017-07-16T01:15:00.381Z,97781.02
2017-07-16T01:17:27.973Z,97781.44
2017-07-16T01:19:55.924Z,97776.69
2017-07-16T01:22:23.512Z,97786.49
2017-07-16T01:24:51.119Z,97786.04
2017-07-16T01:27:18.716Z,97785.19
2017-07-16T01:29:46.309Z,97783.03
2017-07-16T01:32:13.913Z,97786.45
2017-07-16T01:34:41.497Z,97786.00
2017-07-16T01:37:09.096Z,97792.38
2017-07-16T01:39:36.676Z,97788.53
2017-07-16T01:42:04.585Z,97785.14
2017-07-16T01:44:32.162Z,97785.97
2017-07-16T01:46:59.741Z,97791.94
2017-07-16T01:49:27.364Z,97781.28
2017-07-16T01:51:54.978Z,97784.27
2017-07-16T01:54:22.577Z,97790.20
2017-07-16T01:56:50.179Z,97791.02
2017-07-16T01:59:17.780Z,97793.57
2017-07-16T02:01:45.433Z,97788.02
2017-07-16T02:04:13.411Z,97791.41
2017-07-16T02:06:40.995Z,97786.70
2017-07-16T02:09:08.589Z,97792.23
2017-07-16T02:11:36.255Z,97799.38
2017-07-16T02:14:03.843Z,97802.30
2017-07-16T02:16:31.442Z,97793.33
2017-07-16T02:18:59.027Z,97799.72
2017-07-16T02:21:26.633Z,97800.97
2017-07-16T02:23:54.242Z,97802.65
2017-07-16T02:26:21.845Z,97800.05
2017-07-16T02:28:49.765Z,97797.47
2017-07-16T02:31:17.343Z,97789.78
2017-07-16T02:33:44.930Z,97791.04
2017-07-16T02:36:12.549Z,97790.17
2017-07-16T02:38:40.142Z,97788.89
2017-07-16T02:41:07.889Z,97798.63
2017-07-16T02:43:35.473Z,97802.02
2017-07-16T02:46:03.071Z,97808.77
2017-07-16T02:48:30.661Z,97801.06
2017-07-16T02:50:58.236Z,97805.31
2017-07-16T02:53:25.826Z,97802.27
2017-07-16T02:55:53.414Z,97798.38
2017-07-16T02:58:21.026Z,97804.75
2017-07-16T03:00:48.630Z,97803.50
2017-07-16T03:03:16.495Z,97803.08
2017-07-16T03:05:44.091Z,97804.33
2017-07-16T03:08:11.669Z,97807.73
2017-07-16T03:10:39.272Z,97802.99
2017-07-16T03:13:06.849Z,97809.34
2017-07-16T03:15:34.540Z,97809.33
2017-07-16T03:18:02.136Z,97815.27
2017-07-16T03:20:29.750Z,97814.41
2017-07-16T03:22:57.331Z,97811.84
2017-07-16T03:25:36.707Z,97815.22
2017-07-16T03:28:04.282Z,97817.73
2017-07-16T03:30:32.294Z,97820.27
2017-07-16T03:32:59.891Z,97823.21
2017-07-16T03:35:27.482Z,97821.95
2017-07-16T03:37:55.104Z,97819.77
2017-07-16T03:40:22.685Z,97822.20
2017-07-16T03:42:50.383Z,97826.78
2017-07-16T03:45:17.969Z,97830.97
2017-07-16T03:47:45.568Z,97833.09
2017-07-16T03:50:13.147Z,97825.47
2017-07-16T03:52:41.016Z,97826.30
2017-07-16T03:55:08.611Z,97829.22
2017-07-16T03:57:36.210Z,97824.87
2017-07-16T04:00:03.826Z,97827.38
2017-07-16T04:02:31.417Z,97825.20
2017-07-16T04:04:59.033Z,97832.77
2017-07-16T04:07:26.613Z,97829.80
2017-07-16T04:09:54.219Z,97833.17
2017-07-16T04:12:21.798Z,97833.59
2017-07-16T04:14:49.726Z,97835.72
2017-07-16T04:17:17.315Z,97835.72
2017-07-16T04:19:44.901Z,97842.16
2017-07-16T04:22:12.508Z,97829.84
2017-07-16T04:24:40.147Z,97832.42
2017-07-16T04:27:07.775Z,97835.02
2017-07-16T04:29:35.378Z,97834.09
2017-07-16T04:32:03.002Z,97835.41
2017-07-16T04:34:30.589Z,97836.72
2017-07-16T04:36:58.221Z,97838.91
2017-07-16T04:39:25.848Z,97843.22
2017-07-16T04:41:53.733Z,97846.60
2017-07-16T04:44:21.322Z,97849.17
2017-07-16T04:46:48.907Z,97846.64
2017-07-16T04:49:16.519Z,97849.69
2017-07-16T04:51:44.111Z,97855.23
2017-07-16T04:54:11.735Z,97851.45
2017-07-16T04:56:39.314Z,97848.11
2017-07-16T04:59:07.258Z,97846.45
2017-07-16T05:01:34.862Z,97853.34
2017-07-16T05:04:02.588Z,97855.91
2017-07-16T05:06:30.228Z,97863.61
2017-07-16T05:08:57.828Z,97856.48
2017-07-16T05:11:25.448Z,97865.47
2017-07-16T05:13:53.047Z,97868.47
2017-07-16T05:16:20.924Z,97878.29
2017-07-16T05:18:48.501Z,97876.17
2017-07-16T05:21:16.107Z,97878.34
2017-07-16T05:23:43.785Z,97882.30
2017-07-16T05:26:11.376Z,97877.67
2017-07-16T05:28:38.977Z,97889.11
2017-07-16T05:31:06.570Z,97887.00
2017-07-16T05:33:34.178Z,97887.91
2017-07-16T05:36:01.870Z,97885.88
2017-07-16T05:38:29.852Z,97888.09
2017-07-16T05:40:57.429Z,97889.41
2017-07-16T05:43:25.072Z,97891.19
2017-07-16T05:45:52.679Z,97884.81
2017-07-16T05:48:20.276Z,97895.93
2017-07-16T05:50:48.925Z,97894.74
2017-07-16T05:53:16.508Z,97897.31
2017-07-16T05:55:44.588Z,97902.48
2017-07-16T05:58:12.213Z,97906.36
2017-07-16T06:00:39.808Z,97898.31
2017-07-16T06:03:07.522Z,97900.50
2017-07-16T06:05:35.108Z,97897.13
2017-07-16T06:08:02.745Z,97898.88
2017-07-16T06:10:30.345Z,97901.08
2017-07-16T06:12:57.970Z,97903.67
2017-07-16T06:15:25.540Z,97896.07
2017-07-16T06:17:53.426Z,97896.97
2017-07-16T06:20:21.005Z,97897.45
2017-07-16T06:22:48.611Z,97897.48
2017-07-16T06:25:16.270Z,97900.49
2017-07-16T06:27:43.851Z,97906.92
2017-07-16T06:30:11.479Z,97902.67
2017-07-16T06:32:39.078Z,97901.02
2017-07-16T06:35:06.698Z,97902.32
2017-07-16T06:37:34.294Z,97900.22
2017-07-16T06:40:02.171Z,97900.67
2017-07-16T06:42:29.818Z,97900.27
2017-07-16T06:44:57.409Z,97896.87
2017-07-16T06:47:25.065Z,97896.45
2017-07-16T06:49:52.663Z,97902.02
2017-07-16T06:52:20.330Z,97896.95
2017-07-16T06:54:47.929Z,97891.01
2017-07-16T06:57:15.825Z,97898.27
2017-07-16T06:59:43.429Z,97899.13
2017-07-16T07:02:11.020Z,97897.02
2017-07-16T07:04:38.666Z,97901.70
2017-07-16T07:07:06.264Z,97904.69
2017-07-16T07:09:33.915Z,97902.58
2017-07-16T07:12:01.495Z,97904.29
2017-07-16T07:14:29.119Z,97898.72
2017-07-16T07:16:56.735Z,97905.97
2017-07-16T07:19:24.798Z,97899.58
2017-07-16T07:21:52.404Z,97899.14
2017-07-16T07:24:19.991Z,97902.54
2017-07-16T07:26:47.704Z,97903.41
2017-07-16T07:29:15.335Z,97902.97
2017-07-16T07:31:42.966Z,97904.27
2017-07-16T07:34:10.577Z,97901.66
2017-07-16T07:36:38.500Z,97899.50
2017-07-16T07:39:06.148Z,97899.08
2017-07-16T07:41:33.748Z,97897.34
2017-07-16T07:44:01.398Z,97901.61
2017-07-16T07:46:28.984Z,97903.30
2017-07-16T07:48:56.601Z,97898.59
2017-07-16T07:51:24.216Z,97895.17
2017-07-16T07:53:51.866Z,97899.43
2017-07-16T07:56:19.465Z,97894.70
2017-07-16T07:58:47.573Z,97896.36
2017-07-16T08:01:15.154Z,97893.77
2017-07-16T08:03:43.821Z,97894.12
2017-07-16T08:06:11.459Z,97888.55
2017-07-16T08:08:39.052Z,97891.94
2017-07-16T08:11:06.722Z,97891.06
2017-07-16T08:13:34.318Z,97892.31
2017-07-16T08:16:01.957Z,97890.13
2017-07-16T08:18:29.541Z,97888.31
2017-07-16T08:20:57.664Z,97894.30
2017-07-16T08:23:25.261Z,97895.61
2017-07-16T08:25:52.885Z,97891.33
2017-07-16T08:28:20.544Z,97892.98
2017-07-16T08:30:48.158Z,97883.11
2017-07-16T08:33:15.782Z,97878.78
2017-07-16T08:35:43.407Z,97883.45
2017-07-16T08:38:11.052Z,97876.02
2017-07-16T08:40:38.639Z,97867.28
2017-07-16T08:43:06.506Z,97871.48
2017-07-16T08:45:34.087Z,97865.42
2017-07-16T08:48:01.693Z,97870.18
2017-07-16T08:50:29.329Z,97869.34
2017-07-16T08:52:56.923Z,97874.84
2017-07-16T08:55:24.582Z,97872.78
2017-07-16T08:57:52.173Z,97874.11
2017-07-16T09:00:20.070Z,97870.61
2017-07-16T09:02:47.726Z,97867.09
2017-07-16T09:05:15.330Z,97866.13
2017-07-16T09:07:42.971Z,97864.36
2017-07-16T09:10:10.955Z,97856.55
2017-07-16T09:12:38.559Z,97861.53
2017-07-16T09:15:06.182Z,97858.31
2017-07-16T09:17:33.840Z,97858.14
2017-07-16T09:20:01.485Z,97860.92
2017-07-16T09:22:29.144Z,97861.09
2017-07-16T09:24:56.774Z,97859.75
2017-07-16T09:27:24.365Z,97854.00
2017-07-16T09:29:52.352Z,97856.20
2017-07-16T09:32:19.983Z,97858.09
2017-07-16T09:34:47.625Z,97861.09
2017-07-16T09:37:15.253Z,97851.85
2017-07-16T09:39:43.179Z,97853.38
2017-07-16T09:42:10.763Z,97854.92
2017-07-16T09:44:38.627Z,97852.68
2017-07-16T09:47:06.273Z,97848.07
2017-07-16T09:49:33.899Z,97842.77
2017-07-16T09:52:01.533Z,97842.91
2017-07-16T09:54:29.114Z,97840.54
2017-07-16T09:56:56.787Z,97842.53
2017-07-16T09:59:24.379Z,97836.80
2017-07-16T10:01:52.038Z,97835.16
2017-07-16T10:04:19.633Z,97838.24
2017-07-16T10:06:47.694Z,97828.87
2017-07-16T10:09:15.301Z,97829.45
2017-07-16T10:11:42.948Z,97824.76
2017-07-16T10:14:10.575Z,97828.91
2017-07-16T10:16:38.177Z,97822.59
2017-07-16T10:19:05.824Z,97819.90
2017-07-16T10:21:33.473Z,97827.76
2017-07-16T10:24:01.102Z,97826.62
2017-07-16T10:26:28.725Z,97827.95
2017-07-16T10:28:56.360Z,97825.48
2017-07-16T10:31:24.025Z,97817.52
2017-07-16T10:33:51.653Z,97820.09
2017-07-16T10:36:19.307Z,97820.63
2017-07-16T10:38:46.917Z,97816.80
2017-07-16T10:41:14.539Z,97812.09
2017-07-16T10:43:42.117Z,97818.30
2017-07-16T10:46:09.741Z,97824.32
2017-07-16T10:48:37.345Z,97819.09
2017-07-16T10:51:04.964Z,97814.34
2017-07-16T10:53:32.639Z,97810.47
2017-07-16T10:56:00.247Z,97804.94
2017-07-16T10:58:27.889Z,97802.62
2017-07-16T11:00:55.522Z,97802.80
2017-07-16T11:03:23.152Z,97798.38
2017-07-16T11:05:50.786Z,97791.84
2017-07-16T11:08:18.449Z,97792.53
2017-07-16T11:10:46.067Z,97790.59
2017-07-16T11:13:13.661Z,97786.12
2017-07-16T11:15:41.303Z,97782.92
2017-07-16T11:18:08.924Z,97784.03
2017-07-16T11:20:36.856Z,97792.06
2017-07-16T11:23:04.461Z,97788.81
2017-07-16T11:25:32.061Z,97777.11
2017-07-16T11:27:59.679Z,97778.00
2017-07-16T11:30:27.353Z,97774.93
2017-07-16T11:32:54.996Z,97766.75
2017-07-16T11:35:22.623Z,97767.61
2017-07-16T11:37:50.728Z,97760.28
2017-07-16T11:40:18.327Z,97765.95
2017-07-16T11:42:45.962Z,97768.70
2017-07-16T11:45:13.632Z,97765.38
2017-07-16T11:47:41.253Z,97765.30
2017-07-16T11:50:08.928Z,97768.72
2017-07-16T11:52:36.532Z,97770.07
2017-07-16T11:55:04.194Z,97775.89
2017-07-16T11:57:31.838Z,97766.09
2017-07-16T12:00:03.365Z,97763.72
2017-07-16T12:02:30.994Z,97763.80
2017-07-16T12:04:58.602Z,97764.50
2017-07-16T12:07:26.219Z,97761.72
2017-07-16T12:09:53.843Z,97760.91
2017-07-16T12:12:21.497Z,97754.39
2017-07-16T12:14:50.076Z,97749.69
2017-07-16T12:17:17.663Z,97757.77
2017-07-16T12:19:45.301Z,97748.39
2017-07-16T12:22:12.985Z,97745.56
2017-07-16T12:24:40.607Z,97744.80
2017-07-16T12:27:09.342Z,97743.31
2017-07-16T12:29:36.938Z,97744.89
2017-07-16T12:32:04.578Z,97747.67
2017-07-16T12:34:32.199Z,97745.35
2017-07-16T12:37:00.319Z,97740.50
2017-07-16T12:39:28.149Z,97738.75
2017-07-16T12:41:55.807Z,97737.66
2017-07-16T12:44:23.491Z,97737.36
2017-07-16T12:46:51.205Z,97734.14
2017-07-16T12:49:18.873Z,97725.95
2017-07-16T12:51:46.498Z,97720.66
2017-07-16T12:54:14.201Z,97724.44
2017-07-16T12:56:41.806Z,97722.69
2017-07-16T12:59:09.827Z,97724.38
2017-07-16T13:01:37.430Z,97715.22
2017-07-16T13:04:06.064Z,97719.48
2017-07-16T13:06:33.705Z,97710.11
2017-07-16T13:09:01.311Z,97714.10
2017-07-16T13:11:28.946Z,97713.14
2017-07-16T13:13:56.552Z,97713.58
2017-07-16T13:16:24.349Z,97719.58
2017-07-16T13:18:51.962Z,97714.41
2017-07-16T13:21:19.559Z,97708.62
2017-07-16T13:23:47.201Z,97715.42
2017-07-16T13:26:14.804Z,97708.52
2017-07-16T13:28:42.417Z,97712.93
2017-07-16T13:31:10.144Z,97705.81
2017-07-16T13:33:37.784Z,97705.38
2017-07-16T13:36:05.419Z,97711.56
2017-07-16T13:38:33.064Z,97706.41
2017-07-16T13:41:00.696Z,97706.06
2017-07-16T13:43:28.290Z,97704.34
2017-07-16T13:45:55.944Z,97699.59
2017-07-16T13:48:23.539Z,97699.32
2017-07-16T13:50:51.148Z,97695.00
2017-07-16T13:53:18.780Z,97688.42
2017-07-16T13:55:46.386Z,97693.93
2017-07-16T13:58:14.012Z,97687.83
2017-07-16T14:00:41.755Z,97680.89
2017-07-16T14:03:09.355Z,97680.11
2017-07-16T14:05:36.970Z,97677.83
2017-07-16T14:08:04.569Z,97677.14
2017-07-16T14:10:32.209Z,97669.17
2017-07-16T14:12:59.902Z,97666.93
2017-07-16T14:15:27.541Z,97665.34
2017-07-16T14:17:55.148Z,97658.27
2017-07-16T14:20:22.777Z,97662.89
2017-07-16T14:22:50.515Z,97661.70
2017-07-16T14:25:18.113Z,97665.41
2017-07-16T14:27:46.163Z,97659.33
2017-07-16T14:30:13.774Z,97657.88
2017-07-16T14:32:41.376Z,97650.30
2017-07-16T14:35:09.027Z,97651.33
2017-07-16T14:37:36.647Z,97653.44
2017-07-16T14:40:04.319Z,97647.72
2017-07-16T14:42:31.909Z,97644.67
2017-07-16T14:44:59.797Z,97637.68
2017-07-16T14:47:27.404Z,97650.89
2017-07-16T14:49:55.028Z,97644.52
2017-07-16T14:52:22.664Z,97639.63
2017-07-16T14:54:50.327Z,97640.89
2017-07-16T14:57:18.125Z,97638.03
2017-07-16T14:59:45.747Z,97639.22
2017-07-16T15:02:13.705Z,97631.76
2017-07-16T15:04:41.315Z,97628.85
2017-07-16T15:07:08.923Z,97628.38
2017-07-16T15:09:36.559Z,97628.76
2017-07-16T15:12:04.130Z,97626.83
2017-07-16T15:14:32.252Z,97629.86
2017-07-16T15:16:59.857Z,97632.97
2017-07-16T15:19:27.448Z,97635.94
2017-07-16T15:21:55.096Z,97634.49
2017-07-16T15:24:22.705Z,97637.95
2017-07-16T15:26:50.336Z,97629.09
2017-07-16T15:29:17.973Z,97633.31
2017-07-16T15:31:45.930Z,97625.20
2017-07-16T15:34:13.619Z,97621.94
2017-07-16T15:36:41.350Z,97627.05
2017-07-16T15:39:08.979Z,97622.92
2017-07-16T15:41:36.604Z,97632.88
2017-07-16T15:44:04.223Z,97619.23
2017-07-16T15:46:31.857Z,97620.16
2017-07-16T15:48:59.466Z,97616.24
2017-07-16T15:51:27.378Z,97612.19
2017-07-16T15:53:54.989Z,97613.16
2017-07-16T15:56:22.600Z,97608.81
2017-07-16T15:58:50.527Z,97613.04
2017-07-16T16:01:18.156Z,97609.79
2017-07-16T16:03:45.748Z,97615.17
2017-07-16T16:06:13.381Z,97613.89
2017-07-16T16:08:40.981Z,97608.92
2017-07-16T16:11:08.947Z,97601.41
2017-07-16T16:13:36.564Z,97602.45
2017-07-16T16:16:04.202Z,97599.15
2017-07-16T16:18:31.897Z,97605.53
2017-07-16T16:20:59.525Z,97597.28
2017-07-16T16:23:27.154Z,97600.06
2017-07-16T16:25:54.768Z,97598.95
2017-07-16T16:28:22.809Z,97596.57
2017-07-16T16:30:50.412Z,97594.94
2017-07-16T16:33:18.183Z,97599.81
2017-07-16T16:35:45.822Z,97597.27
2017-07-16T16:38:14.315Z,97593.36
2017-07-16T16:40:42.197Z,97600.47
2017-07-16T16:43:09.790Z,97600.14
2017-07-16T16:45:37.411Z,97604.13
2017-07-16T16:48:05.037Z,97602.30
2017-07-16T16:50:32.609Z,97597.30
2017-07-16T16:53:00.290Z,97601.83
2017-07-16T16:55:27.897Z,97599.08
2017-07-16T16:57:55.866Z,97597.83
2017-07-16T17:00:23.481Z,97608.09
2017-07-16T17:02:51.097Z,97607.71
2017-07-16T17:05:18.717Z,97600.73
2017-07-16T17:07:46.409Z,97594.80
2017-07-16T17:10:14.497Z,97601.76
2017-07-16T17:12:42.161Z,97600.96
2017-07-16T17:15:09.739Z,97599.94
2017-07-16T17:17:37.384Z,97591.70
2017-07-16T17:20:05.073Z,97599.76
2017-07-16T17:22:32.673Z,97599.63
2017-07-16T17:25:00.634Z,97599.56
2017-07-16T17:27:28.241Z,97601.72
2017-07-16T17:29:55.908Z,97603.88
2017-07-16T17:32:23.553Z,97611.95
2017-07-16T17:34:51.197Z,97612.02
2017-07-16T17:37:18.805Z,97615.54
2017-07-16T17:39:46.412Z,97609.52
2017-07-16T17:42:14.024Z,97611.11
2017-07-16T17:44:41.672Z,97607.92
2017-07-16T17:47:09.315Z,97605.94
2017-07-16T17:49:36.954Z,97606.55
2017-07-16T17:52:04.589Z,97606.46
2017-07-16T17:54:33.042Z,97608.95
2017-07-16T17:57:00.668Z,97613.17
2017-07-16T17:59:28.431Z,97610.90
2017-07-16T18:01:56.059Z,97612.00
2017-07-16T18:04:23.759Z,97611.73
2017-07-16T18:06:51.450Z,97605.41
2017-07-16T18:09:20.379Z,97613.71
2017-07-16T18:11:48.029Z,97615.64
2017-07-16T18:14:15.671Z,97611.96
2017-07-16T18:16:43.383Z,97614.22
2017-07-16T18:19:10.992Z,97613.52
2017-07-16T18:21:38.635Z,97614.96
2017-07-16T18:24:06.267Z,97620.71
2017-07-16T18:26:34.198Z,97617.12
2017-07-16T18:29:21.453Z,97610.95
2017-07-16T18:31:49.486Z,97619.47
2017-07-16T18:34:17.129Z,97622.73
2017-07-16T18:36:44.910Z,97623.34
2017-07-16T18:39:12.584Z,97624.73
2017-07-16T18:41:40.258Z,97620.20
2017-07-16T18:44:08.189Z,97620.04
2017-07-16T18:46:36.909Z,97627.97
2017-07-16T18:49:04.519Z,97625.95
2017-07-16T18:51:32.151Z,97626.51
2017-07-16T18:53:59.774Z,97630.98
2017-07-16T18:56:27.444Z,97625.52
2017-07-16T18:58:55.226Z,97635.53
2017-07-16T19:01:23.131Z,97634.44
2017-07-16T19:03:51.997Z,97638.55
2017-07-16T19:06:19.581Z,97641.33
2017-07-16T19:08:47.186Z,97643.09
2017-07-16T19:11:14.842Z,97643.98
2017-07-16T19:13:42.504Z,97650.55
2017-07-16T19:16:10.229Z,97648.12
2017-07-16T19:18:37.889Z,97646.08
2017-07-16T19:21:05.856Z,97648.38
2017-07-16T19:23:33.513Z,97646.30
2017-07-16T19:26:01.120Z,97651.10
2017-07-16T19:28:28.861Z,97647.73
2017-07-16T19:30:56.495Z,97652.50
2017-07-16T19:33:24.671Z,97655.58
2017-07-16T19:35:52.350Z,97655.64
2017-07-16T19:38:19.969Z,97654.42
2017-07-16T19:40:47.623Z,97661.83
2017-07-16T19:43:15.246Z,97654.63
2017-07-16T19:45:42.894Z,97655.13
2017-07-16T19:48:10.624Z,97661.20
2017-07-16T19:50:38.742Z,97657.44
2017-07-16T19:53:06.346Z,97663.98
2017-07-16T19:55:33.963Z,97663.61
2017-07-16T19:58:01.623Z,97663.64
2017-07-16T20:00:29.288Z,97664.93
2017-07-16T20:02:56.976Z,97665.42
2017-07-16T20:05:24.606Z,97662.88
2017-07-16T20:07:52.260Z,97660.33
2017-07-16T20:10:19.926Z,97661.62
2017-07-16T20:12:48.094Z,97661.65
2017-07-16T20:15:15.733Z,97664.72
2017-07-16T20:17:43.351Z,97660.52
2017-07-16T20:20:11.000Z,97658.86
2017-07-16T20:22:38.612Z,97655.88
2017-07-16T20:25:06.554Z,97654.62
2017-07-16T20:27:34.190Z,97660.63
2017-07-16T20:30:01.782Z,97653.78
2017-07-16T20:32:29.394Z,97654.25
2017-07-16T20:34:56.986Z,97652.96
2017-07-16T20:37:24.619Z,97653.42
2017-07-16T20:39:52.339Z,97653.45
2017-07-16T20:42:20.300Z,97652.22
2017-07-16T20:44:47.943Z,97653.94
2017-07-16T20:47:15.526Z,97650.96
2017-07-16T20:49:43.139Z,97647.49
2017-07-16T20:52:10.742Z,97643.63
2017-07-16T20:54:38.650Z,97650.07
2017-07-16T20:57:06.300Z,97647.09
2017-07-16T20:59:33.927Z,97647.23
2017-07-16T21:02:01.543Z,97648.30
2017-07-16T21:04:29.164Z,97645.40
2017-07-16T21:06:56.807Z,97647.68
2017-07-16T21:09:24.424Z,97653.86
2017-07-16T21:11:52.349Z,97658.27
2017-07-16T21:14:20.057Z,97652.73
2017-07-16T21:16:47.833Z,97651.89
2017-07-16T21:19:15.443Z,97664.38
2017-07-16T21:21:43.157Z,97667.03
2017-07-16T21:24:11.286Z,97660.22
2017-07-16T21:26:38.903Z,97661.51
2017-07-16T21:29:06.787Z,97661.52
2017-07-16T21:31:34.397Z,97655.14
2017-07-16T21:34:02.089Z,97658.62
2017-07-16T21:36:29.802Z,97651.83
2017-07-16T21:38:57.462Z,97650.61
2017-07-16T21:41:25.335Z,97654.11
2017-07-16T21:43:52.966Z,97650.73
2017-07-16T21:46:20.554Z,97653.33
2017-07-16T21:48:48.172Z,97651.20
2017-07-16T21:51:15.792Z,97652.06
2017-07-16T21:53:43.495Z,97650.38
2017-07-16T21:56:11.093Z,97651.25
2017-07-16T21:58:39.046Z,97646.96
2017-07-16T22:01:06.632Z,97653.00
2017-07-16T22:03:34.331Z,97648.35
2017-07-16T22:06:01.958Z,97646.66
2017-07-16T22:08:29.551Z,97651.80
2017-07-16T22:10:57.441Z,97652.23
2017-07-16T22:13:25.126Z,97652.68
2017-07-16T22:15:52.721Z,97655.67
2017-07-16T22:18:20.318Z,97660.86
2017-07-16T22:20:47.920Z,97655.75
2017-07-16T22:23:15.534Z,97654.91
2017-07-16T22:25:43.135Z,97651.98
2017-07-16T22:28:11.012Z,97651.56
2017-07-16T22:30:38.624Z,97650.73
2017-07-16T22:33:06.348Z,97648.20
2017-07-16T22:35:33.966Z,97648.25
2017-07-16T22:38:01.581Z,97650.40
2017-07-16T22:40:29.189Z,97650.02
2017-07-16T22:42:56.778Z,97648.28
2017-07-16T22:45:24.717Z,97650.03
2017-07-16T22:47:52.305Z,97647.47
2017-07-16T22:50:19.940Z,97649.25
2017-07-16T22:52:47.572Z,97651.39
2017-07-16T22:55:15.233Z,97654.44
2017-07-16T22:57:43.119Z,97646.31
2017-07-16T23:00:10.732Z,97644.63
2017-07-16T23:02:38.348Z,97648.53
2017-07-16T23:05:05.952Z,97643.91
2017-07-16T23:07:33.532Z,97643.48
2017-07-16T23:10:01.187Z,97652.08
2017-07-16T23:12:28.854Z,97652.98
2017-07-16T23:14:56.451Z,97641.00
2017-07-16T23:17:24.498Z,97636.31
2017-07-16T23:19:52.146Z,97635.07
2017-07-16T23:22:19.717Z,97633.42
2017-07-16T23:24:47.341Z,97629.61
2017-07-16T23:27:14.949Z,97637.75
2017-07-16T23:29:42.600Z,97631.79
2017-07-16T23:32:10.171Z,97631.80
2017-07-16T23:34:38.252Z,97635.66
2017-07-16T23:37:05.842Z,97630.11
2017-07-16T23:39:33.433Z,97632.71
2017-07-16T23:42:01.045Z,97628.44
2017-07-16T23:44:28.630Z,97633.59
2017-07-16T23:46:56.615Z,97634.88
2017-07-16T23:49:24.195Z,97637.03
2017-07-16T23:51:51.796Z,97633.19
2017-07-16T23:54:19.405Z,97626.36
2017-07-16T23:56:47.074Z,97635.37
2017-07-16T23:59:14.692Z,97626.84
